Lewisport, KY

4:31 AM CST on February 13, 2016 (GMT -0600)
KKYOWENS4 | | Change Station
CLOSE
Current Station
Personal Weather Station
Location: Owensboro, Scotty Lane, KY
Elevation: 477 ft
Nearby Weather Stations
Active Advisory: Special Statement

Elev 477 ft 37.74 °N, 87.07 °W | Updated 22 seconds ago

Clear
Clear
16.5 °F
Feels Like 16 °F
N
0.0
Wind Variable Wind from NNE
Gusts 5.8 mph

Today
High -- | Low -- °F
--% Chance of Precip.
Yesterday
High -- | Low -- °F
Precip. -- in
Pressure 30.55 in
Visibility 10.0 miles
Clouds Clear
Windchill 16 °F
Dew Point 7 °F
Humidity 65%
Rainfall 0.00 in
Snow Depth Not available.
6:40 AM 5:24 PM
Waxing Crescent, 29% visible
METAR KOWB 130956Z AUTO 34012KT 10SM CLR M08/M15 A3053 RMK AO2 T10831150 SLP344
Pressure 30.55 in
Visibility 10.0 miles
Clouds Clear
Windchill 16 °F
Dew Point 7 °F
Humidity 65%
Rainfall 0.00 in
Snow Depth Not available.
6:40 AM 5:24 PM
Waxing Crescent, 29% visible
METAR KOWB 130956Z AUTO 34012KT 10SM CLR M08/M15 A3053 RMK AO2 T10831150 SLP344

10-Day Weather Forecast

Almanac

Astronomy

Feb. 13, 2016 Rise Set
Actual Time
Civil Twilight
Nautical Twilight
Astronomical Twilight
Moon
Length of Visible Light
Length of Day
Tomorrow will be .
, % of the Moon is Illuminated

Today's Extremes

State Highs State Lows

Community

WunderPhotos

Upload Photos

1,892,537 photos uploaded!

WunderBlog® & News

Nearby

Air Quality

  Air Quality AQ Index Pollutant
Not available.

Snow Depth

Station Depth Elevation

Earthquake Activity

City Distance Mag. Time & Date
Minimum magnitude displayed is 2.5.

Coastal Water Temperatures

Place Temperature

Stations

Nearby Weather Stations

Station Location Temp. Windchill Dew Point Humidity Wind Precip. Elev Updated Type
                   

Watches & Warnings

Special Statement
Issued: 3:15 AM CST Feb. 13, 2016 – National Weather Service

... Accumulating snowfall likely Sunday into Sunday night...

A storm system moving from the northern plains into the Great
Lakes region will help induce a swath of snow across the Ohio
Valley Sunday into Sunday night. Accumulations will generally range
from 2 to 4 inches... with locally higher amounts possible across
south central Kentucky. These amounts will likely cover area
roadways... so motorists are urged to use caution... slow down... and
allow extra time to reach their destination.


Kjd


415 am EST Sat Feb 13 2016 /315 am CST Sat Feb 13 2016/

... Accumulating snowfall likely Sunday into Sunday night...

A storm system moving from the northern plains into the Great
Lakes region will help induce a swath of snow across the Ohio
Valley Sunday into Sunday night. Accumulations will generally range
from 2 to 4 inches... with locally higher amounts possible across
south central Kentucky. These amounts will likely cover area
roadways... so motorists are urged to use caution... slow down... and
allow extra time to reach their destination.


Kjd